ZWWW/URC METAR and TAF weather

Enter ICAO airport designator
Station Type Date Time Source
ZWWW METAR 2022/06/26 07:30 UTC NOAA

ZWWW 260730Z 34004MPS 300V360 CAVOK 35/08 Q1008 NOSIG


Station Type Date Time Source
ZWWW Decoded METAR 2022/06/26 07:30 UTC NOAA

Urum-Qi / Diwopu, China (ZWWW) 43-54N 087-28E
Jun 26, 2022 - 03:30 AM EDT / 2022.06.26 0730 UTC
Wind: from the NNW (340 degrees) at 9 MPH (8 KT) (direction variable):0
Visibility: greater than 7 mile(s):0
Temperature: 95 F (35 C)
Dew Point: 46 F (8 C)
Relative Humidity: 19%
Pressure (altimeter): 29.77 in. Hg (1008 hPa)
ob: ZWWW 260730Z 34004MPS 300V360 CAVOK 35/08 Q1008 NOSIG
cycle: 7

Station Type Date Time Source
ZWWW TAF 2022/06/26 06:03 UTC NOAA

TAF ZWWW 260303Z 2606/2706 34004MPS CAVOK TX36/2609Z TN26/2623Z
BECMG 2613/2614 18004MPS
BECMG 2702/2703 36004MPS

Example: see airport list